Time;durP1;ratioP1;P1;durP2;ratioP2;P2;SDS_P1;SDS_P2;PMS_P1;PMS_P2;Temp;Humidity;BMP_temperature;BMP_pressure;BME280_temperature;BME280_humidity;BME280_pressure;Samples;Min_cycle;Max_cycle;Signal;HPM_P1;HPM_P2
2020/12/28 00:01:10;;;;;;;1.50;0.87;;;5.20;92.60;;;;;;5033329;28;20064;-86
2020/12/28 00:03:35;;;;;;;2.43;0.80;;;5.20;91.90;;;;;;5016194;28;20033;-86
2020/12/28 00:06:01;;;;;;;2.13;0.87;;;5.20;92.10;;;;;;5032845;28;20029;-86
2020/12/28 00:08:27;;;;;;;0.93;0.70;;;5.20;92.00;;;;;;5033870;28;20367;-85
2020/12/28 00:10:52;;;;;;;3.53;0.90;;;5.10;91.90;;;;;;5033205;28;20026;-86
2020/12/28 00:13:18;;;;;;;1.67;0.77;;;5.10;91.90;;;;;;5015818;28;20029;-86
2020/12/28 00:15:43;;;;;;;2.00;0.70;;;5.10;91.80;;;;;;5033615;28;20418;-86
2020/12/28 00:18:09;;;;;;;1.10;0.50;;;5.10;92.10;;;;;;5015677;28;20025;-86
2020/12/28 00:20:35;;;;;;;1.10;0.60;;;5.10;92.00;;;;;;5033635;28;20040;-85
2020/12/28 00:23:00;;;;;;;1.97;0.70;;;5.10;92.10;;;;;;5016345;28;20025;-85
2020/12/28 00:25:27;;;;;;;1.50;0.57;;;5.10;91.90;;;;;;5016353;28;20022;-85
2020/12/28 00:27:53;;;;;;;1.50;0.73;;;5.10;92.30;;;;;;5016380;28;20022;-85
2020/12/28 00:30:19;;;;;;;0.63;0.40;;;5.10;92.20;;;;;;5033621;28;20020;-85
2020/12/28 00:32:45;;;;;;;0.63;0.50;;;5.10;92.10;;;;;;5016267;28;20022;-86
2020/12/28 00:35:12;;;;;;;0.83;0.40;;;5.10;92.00;;;;;;5034296;28;20032;-85
2020/12/28 00:37:38;;;;;;;0.97;0.47;;;5.00;91.80;;;;;;5016246;28;20025;-85
2020/12/28 00:40:06;;;;;;;1.40;0.50;;;5.00;91.70;;;;;;5015960;28;20104;-85
2020/12/28 00:42:33;;;;;;;1.00;0.50;;;5.00;91.90;;;;;;5015849;28;20022;-85
2020/12/28 00:44:58;;;;;;;0.77;0.40;;;5.10;91.90;;;;;;5034067;28;20540;-85
2020/12/28 00:47:24;;;;;;;1.57;0.50;;;5.10;91.90;;;;;;5016175;28;20025;-85
2020/12/28 00:49:50;;;;;;;2.43;0.83;;;5.10;91.90;;;;;;5016035;28;20025;-85
2020/12/28 00:52:16;;;;;;;1.33;0.63;;;5.10;91.80;;;;;;5016238;28;20039;-85
2020/12/28 00:54:41;;;;;;;0.53;0.40;;;5.00;91.90;;;;;;5016141;28;20029;-85
2020/12/28 00:57:07;;;;;;;0.87;0.43;;;5.10;92.20;;;;;;5033986;28;20022;-85
2020/12/28 00:59:33;;;;;;;1.60;0.50;;;5.10;92.10;;;;;;5016059;28;20025;-85
2020/12/28 01:01:59;;;;;;;0.97;0.50;;;5.10;92.20;;;;;;5016315;28;20026;-85
2020/12/28 01:04:25;;;;;;;1.13;0.50;;;5.10;92.10;;;;;;5016378;28;20021;-85
2020/12/28 01:06:51;;;;;;;1.40;0.60;;;5.10;92.30;;;;;;5015762;28;20108;-85
2020/12/28 01:09:18;;;;;;;1.77;0.67;;;5.10;92.40;;;;;;5033694;28;20044;-85
2020/12/28 01:11:44;;;;;;;0.80;0.50;;;5.00;92.50;;;;;;5015548;28;20394;-85
2020/12/28 01:14:11;;;;;;;1.13;0.50;;;5.00;92.30;;;;;;5015166;28;20022;-85
2020/12/28 01:16:37;;;;;;;0.90;0.40;;;5.00;92.40;;;;;;5015394;28;20125;-85
2020/12/28 01:19:03;;;;;;;1.43;0.40;;;5.00;92.50;;;;;;5033195;28;20025;-85
2020/12/28 01:21:29;;;;;;;0.60;0.40;;;4.90;92.30;;;;;;5033597;28;20044;-85
2020/12/28 01:23:55;;;;;;;1.43;0.80;;;5.00;92.50;;;;;;5015672;28;20022;-85
2020/12/28 01:26:21;;;;;;;2.93;0.90;;;5.00;92.50;;;;;;5015717;28;20027;-85
2020/12/28 01:28:46;;;;;;;1.03;0.50;;;4.90;92.40;;;;;;5015814;28;20071;-86
2020/12/28 01:31:12;;;;;;;0.87;0.50;;;5.00;92.50;;;;;;5014832;28;20368;-85
2020/12/28 01:33:38;;;;;;;2.33;0.60;;;4.90;92.30;;;;;;5033045;28;20017;-85
2020/12/28 01:36:05;;;;;;;1.20;0.60;;;4.90;92.30;;;;;;5015100;28;20033;-85
2020/12/28 01:38:30;;;;;;;1.20;0.60;;;4.90;92.10;;;;;;5015041;28;20033;-85
2020/12/28 01:40:57;;;;;;;1.30;0.70;;;4.90;92.30;;;;;;5032700;28;20057;-86
2020/12/28 01:43:30;;;;;;;1.53;0.70;;;5.00;92.40;;;;;;5032816;28;20100;-85
2020/12/28 01:45:56;;;;;;;2.17;0.80;;;5.00;92.40;;;;;;5015335;28;20449;-85
2020/12/28 01:48:22;;;;;;;1.10;0.60;;;5.00;92.30;;;;;;5015313;28;20021;-85
2020/12/28 01:50:48;;;;;;;1.77;0.60;;;5.00;92.40;;;;;;5032229;28;20096;-85
2020/12/28 01:53:16;;;;;;;1.50;0.50;;;5.00;92.30;;;;;;5014724;28;20025;-85
2020/12/28 01:55:44;;;;;;;0.70;0.50;;;5.00;92.30;;;;;;5015081;28;20080;-85
2020/12/28 01:58:10;;;;;;;0.87;0.40;;;4.90;91.90;;;;;;5015206;28;20025;-85
2020/12/28 02:00:36;;;;;;;0.50;0.40;;;4.90;92.00;;;;;;5032957;28;20037;-85
2020/12/28 02:03:01;;;;;;;0.40;0.30;;;4.90;92.30;;;;;;5016146;28;20036;-85
2020/12/28 02:05:27;;;;;;;0.93;0.50;;;4.90;91.50;;;;;;5041841;28;20030;-85
2020/12/28 02:07:54;;;;;;;1.27;0.50;;;4.90;91.80;;;;;;5032618;28;20367;-85
2020/12/28 02:10:20;;;;;;;0.73;0.50;;;4.90;91.60;;;;;;5036009;28;20026;-85
2020/12/28 02:12:45;;;;;;;0.80;0.40;;;4.90;91.70;;;;;;5015404;28;20430;-85
2020/12/28 02:15:11;;;;;;;0.97;0.50;;;4.90;91.70;;;;;;5015148;28;20075;-85
2020/12/28 02:17:37;;;;;;;0.90;0.47;;;4.90;92.00;;;;;;5015115;28;20445;-85
2020/12/28 02:20:02;;;;;;;0.53;0.40;;;4.80;91.30;;;;;;5014592;28;20030;-85
2020/12/28 02:22:28;;;;;;;0.80;0.40;;;4.90;91.50;;;;;;5014846;28;20025;-85
2020/12/28 02:24:54;;;;;;;0.87;0.60;;;4.90;91.80;;;;;;5032711;28;20032;-85
2020/12/28 02:27:19;;;;;;;1.50;0.60;;;4.80;91.70;;;;;;5032799;28;20537;-86
2020/12/28 02:29:45;;;;;;;1.10;0.60;;;4.90;91.60;;;;;;5016845;28;20025;-85
2020/12/28 02:32:10;;;;;;;1.10;0.67;;;4.80;91.70;;;;;;5018504;28;20025;-85
2020/12/28 02:34:36;;;;;;;0.80;0.70;;;4.80;91.50;;;;;;5018719;28;20441;-85
2020/12/28 02:37:02;;;;;;;0.70;0.50;;;4.80;91.80;;;;;;5018091;28;20025;-85
2020/12/28 02:39:27;;;;;;;1.67;0.53;;;4.80;91.80;;;;;;5036180;28;20021;-85
2020/12/28 02:41:53;;;;;;;0.83;0.50;;;4.80;91.80;;;;;;5017995;28;20029;-86
2020/12/28 02:44:19;;;;;;;0.60;0.53;;;4.90;92.40;;;;;;5018175;28;20022;-85
2020/12/28 02:46:44;;;;;;;2.30;0.60;;;4.90;92.20;;;;;;5018055;28;20025;-85
2020/12/28 02:49:10;;;;;;;0.90;0.60;;;4.90;91.90;;;;;;5035360;28;20554;-85
2020/12/28 02:51:35;;;;;;;1.77;0.60;;;4.90;91.90;;;;;;5018074;28;20030;-85
2020/12/28 02:54:01;;;;;;;2.20;0.73;;;4.90;91.70;;;;;;5036020;28;20532;-85
2020/12/28 02:56:26;;;;;;;1.20;0.70;;;4.90;91.90;;;;;;5036138;28;20035;-85
2020/12/28 02:58:52;;;;;;;2.20;0.93;;;4.90;92.60;;;;;;5017739;28;20037;-85
2020/12/28 03:01:17;;;;;;;1.33;0.60;;;4.90;92.10;;;;;;5017981;28;20037;-85
2020/12/28 03:03:43;;;;;;;0.93;0.43;;;4.90;92.20;;;;;;5035958;28;20025;-85
2020/12/28 03:06:10;;;;;;;0.90;0.50;;;4.90;92.10;;;;;;5018237;28;20033;-85
2020/12/28 03:08:36;;;;;;;1.03;0.50;;;4.90;92.00;;;;;;5036247;28;20045;-85
2020/12/28 03:11:01;;;;;;;1.00;0.53;;;4.90;92.20;;;;;;5035987;28;20025;-85
2020/12/28 03:13:27;;;;;;;2.83;1.00;;;4.90;92.20;;;;;;5018910;28;20032;-85
2020/12/28 03:15:52;;;;;;;2.00;0.80;;;4.90;92.20;;;;;;5018161;28;20036;-85
2020/12/28 03:18:18;;;;;;;0.70;0.50;;;4.90;92.40;;;;;;5036267;28;20086;-85
2020/12/28 03:20:43;;;;;;;1.77;0.50;;;4.90;92.30;;;;;;5018102;28;20047;-85
2020/12/28 03:23:09;;;;;;;1.13;0.60;;;4.90;92.20;;;;;;5018489;28;20034;-85
2020/12/28 03:25:34;;;;;;;2.93;0.50;;;4.90;92.70;;;;;;5036027;28;20033;-85
2020/12/28 03:28:00;;;;;;;1.67;0.50;;;4.90;92.40;;;;;;5018664;28;20482;-85
2020/12/28 03:30:26;;;;;;;1.20;0.70;;;4.90;92.40;;;;;;5016976;28;20029;-85
2020/12/28 03:32:51;;;;;;;1.57;0.47;;;4.90;92.50;;;;;;5017820;28;20025;-85
2020/12/28 03:35:17;;;;;;;1.83;0.60;;;4.90;92.60;;;;;;5018524;28;20029;-85
2020/12/28 03:37:42;;;;;;;2.37;0.50;;;5.00;92.80;;;;;;5018737;28;20048;-85
2020/12/28 03:40:08;;;;;;;0.90;0.50;;;5.00;92.60;;;;;;5017855;28;20432;-85
2020/12/28 03:42:34;;;;;;;0.90;0.60;;;5.00;92.70;;;;;;5018481;28;20025;-85
2020/12/28 03:44:59;;;;;;;0.90;0.43;;;4.90;93.10;;;;;;5017953;28;20390;-85
2020/12/28 03:47:25;;;;;;;2.60;0.87;;;5.00;92.90;;;;;;5018081;28;20026;-85
2020/12/28 03:49:51;;;;;;;1.30;0.57;;;5.00;93.00;;;;;;5017615;28;20026;-85
2020/12/28 03:52:16;;;;;;;1.13;0.60;;;5.00;93.10;;;;;;5035954;28;20021;-85
2020/12/28 03:54:44;;;;;;;1.10;0.57;;;5.00;93.20;;;;;;5017926;28;20032;-86
2020/12/28 03:57:10;;;;;;;1.43;0.60;;;5.00;92.90;;;;;;5017877;28;20025;-85
2020/12/28 03:59:36;;;;;;;1.30;0.63;;;5.00;92.80;;;;;;5034884;28;20029;-85
2020/12/28 04:02:01;;;;;;;1.33;0.60;;;5.00;92.80;;;;;;5017744;28;20033;-85
2020/12/28 04:04:27;;;;;;;1.60;0.70;;;5.00;92.80;;;;;;5018219;28;20030;-85
2020/12/28 04:06:52;;;;;;;0.50;0.50;;;5.00;92.60;;;;;;5017724;28;20075;-85
2020/12/28 04:09:18;;;;;;;1.13;0.50;;;5.00;92.60;;;;;;5023338;28;20029;-85
2020/12/28 04:11:44;;;;;;;0.70;0.50;;;5.00;92.70;;;;;;5025823;28;20163;-86
2020/12/28 04:14:09;;;;;;;1.37;0.60;;;5.00;92.50;;;;;;5044831;28;20104;-85
2020/12/28 04:16:35;;;;;;;1.80;0.80;;;5.00;92.60;;;;;;5026542;28;20026;-86
2020/12/28 04:19:00;;;;;;;1.83;0.60;;;5.10;92.50;;;;;;5026464;28;20029;-85
2020/12/28 04:21:26;;;;;;;2.03;1.40;;;5.00;92.50;;;;;;5044376;28;20045;-85
2020/12/28 04:23:51;;;;;;;0.87;0.60;;;5.00;92.60;;;;;;5038247;28;20478;-85
2020/12/28 04:26:17;;;;;;;1.70;0.60;;;5.00;92.40;;;;;;5033563;28;20079;-85
2020/12/28 04:28:43;;;;;;;1.23;0.53;;;5.00;92.90;;;;;;5016259;28;20025;-85
2020/12/28 04:31:09;;;;;;;1.53;0.60;;;5.00;92.50;;;;;;5015344;28;20437;-85
2020/12/28 04:33:36;;;;;;;1.57;0.63;;;5.10;92.50;;;;;;5033594;28;20025;-85
2020/12/28 04:36:03;;;;;;;0.70;0.70;;;5.10;92.50;;;;;;5033431;28;20061;-85
2020/12/28 04:38:28;;;;;;;2.53;0.63;;;5.00;92.60;;;;;;5015607;28;20126;-85
2020/12/28 04:40:55;;;;;;;1.07;0.60;;;5.00;92.70;;;;;;5015159;28;20505;-86
2020/12/28 04:43:20;;;;;;;1.30;0.60;;;5.10;92.50;;;;;;5015454;28;20052;-85
2020/12/28 04:45:46;;;;;;;1.00;0.60;;;5.10;92.50;;;;;;5033105;28;20032;-85
2020/12/28 04:48:12;;;;;;;1.80;0.70;;;5.00;92.50;;;;;;5033285;28;20033;-85
2020/12/28 04:50:40;;;;;;;2.20;0.80;;;5.00;92.70;;;;;;5015415;28;20474;-85
2020/12/28 04:53:06;;;;;;;2.20;0.70;;;5.00;92.80;;;;;;5032876;28;20438;-85
2020/12/28 04:55:32;;;;;;;1.87;0.77;;;5.00;92.70;;;;;;5015779;28;20372;-85
2020/12/28 04:57:58;;;;;;;2.10;0.70;;;5.00;92.70;;;;;;5015644;28;20079;-85
2020/12/28 05:00:25;;;;;;;1.73;0.80;;;5.00;92.70;;;;;;5015243;28;20493;-85
2020/12/28 05:02:51;;;;;;;2.53;0.70;;;5.00;92.90;;;;;;5015369;28;20034;-85
2020/12/28 05:05:16;;;;;;;2.47;0.60;;;5.00;92.90;;;;;;5033638;28;20048;-85
2020/12/28 05:07:51;;;;;;;1.30;0.80;;;5.00;92.70;;;;;;5033532;28;20080;-85
2020/12/28 05:10:26;;;;;;;0.90;0.60;;;5.10;92.90;;;;;;5015270;28;20025;-86
2020/12/28 05:12:52;;;;;;;1.70;0.80;;;5.00;92.60;;;;;;5015865;28;20033;-85
2020/12/28 05:15:18;;;;;;;1.67;0.80;;;5.00;92.70;;;;;;5032942;28;20109;-85
2020/12/28 05:17:52;;;;;;;1.97;0.63;;;5.00;92.80;;;;;;5015282;28;20029;-85
2020/12/28 05:20:23;;;;;;;1.70;0.90;;;5.00;92.70;;;;;;5014597;28;20116;-85
2020/12/28 05:22:55;;;;;;;2.40;1.00;;;5.00;92.70;;;;;;5014859;28;20112;-85
2020/12/28 05:25:22;;;;;;;2.07;1.00;;;5.00;92.70;;;;;;5015129;28;20493;-85
2020/12/28 05:27:49;;;;;;;1.80;0.90;;;5.00;92.90;;;;;;5015209;28;20532;-85
2020/12/28 05:30:16;;;;;;;1.73;1.00;;;5.00;92.80;;;;;;5032631;28;20067;-85
2020/12/28 05:32:43;;;;;;;1.47;0.80;;;5.00;93.00;;;;;;5014993;28;20382;-86
2020/12/28 05:35:13;;;;;;;2.83;1.10;;;5.00;93.00;;;;;;5015074;28;20462;-85
2020/12/28 05:37:39;;;;;;;2.47;1.02;;;5.00;92.90;;;;;;5032805;28;20052;-85
2020/12/28 05:40:08;;;;;;;2.03;0.93;;;5.00;93.10;;;;;;5014370;28;20068;-85
2020/12/28 05:42:34;;;;;;;1.63;0.95;;;5.00;92.90;;;;;;5032799;28;20579;-85
2020/12/28 05:45:06;;;;;;;2.23;1.30;;;5.00;93.20;;;;;;5014944;28;20026;-85
2020/12/28 05:47:41;;;;;;;2.20;1.10;;;5.00;93.30;;;;;;5014818;28;20029;-85
2020/12/28 05:50:08;;;;;;;1.70;1.20;;;5.00;93.10;;;;;;5014219;28;20032;-85
2020/12/28 05:52:41;;;;;;;1.63;1.10;;;5.00;93.00;;;;;;5014429;28;20025;-85
2020/12/28 05:55:07;;;;;;;3.20;1.43;;;5.10;92.80;;;;;;5014489;28;20022;-85
2020/12/28 05:57:33;;;;;;;4.17;2.17;;;5.10;93.00;;;;;;5032044;28;20030;-85
2020/12/28 05:59:58;;;;;;;3.33;1.40;;;5.00;93.00;;;;;;5031725;28;20026;-85
2020/12/28 06:02:27;;;;;;;2.73;1.40;;;5.00;92.80;;;;;;5014773;28;20049;-86
2020/12/28 06:04:57;;;;;;;1.83;1.10;;;5.10;92.80;;;;;;5018180;28;20053;-85
2020/12/28 06:07:23;;;;;;;3.07;1.23;;;5.10;92.90;;;;;;5018240;28;20040;-85
2020/12/28 06:09:56;;;;;;;2.33;1.20;;;5.00;92.80;;;;;;5017963;28;20021;-85
2020/12/28 06:12:21;;;;;;;2.20;1.30;;;5.00;93.00;;;;;;5018039;28;20111;-86
2020/12/28 06:14:47;;;;;;;2.27;1.33;;;5.00;92.80;;;;;;5017940;28;20467;-86
2020/12/28 06:17:13;;;;;;;3.03;1.30;;;5.00;93.00;;;;;;5017913;28;20112;-86
2020/12/28 06:19:41;;;;;;;7.67;2.77;;;5.00;92.90;;;;;;5017705;28;20025;-86
2020/12/28 06:22:24;;;;;;;3.33;1.70;;;5.00;92.90;;;;;;5041347;23;20123;-82
2020/12/28 06:24:57;;;;;;;3.47;1.60;;;5.00;93.00;;;;;;5019149;28;20026;-82
2020/12/28 06:27:34;;;;;;;2.40;1.40;;;5.00;93.00;;;;;;5037031;28;20478;-81
2020/12/28 06:30:18;;;;;;;4.57;1.53;;;5.00;93.20;;;;;;5036506;28;20018;-82
2020/12/28 06:32:45;;;;;;;3.23;1.60;;;5.00;93.00;;;;;;5018343;28;20018;-81
2020/12/28 06:35:14;;;;;;;3.50;1.60;;;5.00;93.10;;;;;;4999710;28;20547;-81
2020/12/28 06:37:53;;;;;;;3.37;1.80;;;5.00;92.90;;;;;;5017398;28;20100;-81
2020/12/28 06:40:31;;;;;;;3.45;1.40;;;5.00;92.60;;;;;;5000288;28;20076;-81
2020/12/28 06:43:15;;;;;;;2.77;1.60;;;5.00;92.60;;;;;;5019020;28;20038;-81
2020/12/28 06:45:43;;;;;;;4.43;2.20;;;4.90;92.70;;;;;;5001083;28;20029;-83
2020/12/28 06:48:22;;;;;;;4.28;2.10;;;4.90;92.70;;;;;;5000429;28;20049;-82
2020/12/28 06:50:49;;;;;;;3.20;1.80;;;4.90;92.60;;;;;;5018364;28;20080;-82
2020/12/28 06:53:21;;;;;;;2.43;1.50;;;4.90;92.80;;;;;;5018728;28;20081;-82
2020/12/28 06:55:47;;;;;;;3.10;1.43;;;4.90;92.70;;;;;;5001134;28;20083;-82
2020/12/28 06:58:13;;;;;;;5.70;1.90;;;4.90;92.90;;;;;;5017330;28;20492;-82
2020/12/28 07:00:38;;;;;;;3.80;1.70;;;4.90;92.70;;;;;;5017478;28;20108;-82
2020/12/28 07:03:19;;;;;;;3.60;1.67;;;4.80;92.80;;;;;;5017090;28;20115;-82
2020/12/28 07:05:45;;;;;;;4.00;2.00;;;4.80;93.00;;;;;;5017084;28;20036;-81
2020/12/28 07:08:11;;;;;;;6.07;1.90;;;4.80;93.10;;;;;;5017042;28;20025;-81
2020/12/28 07:10:36;;;;;;;3.70;1.60;;;4.90;92.90;;;;;;5016433;28;20034;-82
2020/12/28 07:13:04;;;;;;;3.77;1.70;;;4.90;93.10;;;;;;5017604;28;20036;-81
2020/12/28 07:15:29;;;;;;;2.97;1.60;;;4.90;92.90;;;;;;5017606;28;20057;-81
2020/12/28 07:17:55;;;;;;;3.57;1.60;;;4.90;93.00;;;;;;5016865;28;20034;-82
2020/12/28 07:20:20;;;;;;;2.80;1.60;;;4.90;92.70;;;;;;5016294;28;20038;-81
2020/12/28 07:22:46;;;;;;;3.73;1.80;;;4.90;92.70;;;;;;4999144;28;20041;-82
2020/12/28 07:25:13;;;;;;;3.00;1.30;;;5.00;92.90;;;;;;5017620;28;20034;-82
2020/12/28 07:27:40;;;;;;;3.73;1.70;;;5.00;92.60;;;;;;5017297;28;20022;-82
2020/12/28 07:30:11;;;;;;;2.50;1.50;;;5.00;92.60;;;;;;5016670;28;20108;-82
2020/12/28 07:32:38;;;;;;;2.10;1.30;;;5.00;92.30;;;;;;4998514;28;20502;-82
2020/12/28 07:35:05;;;;;;;4.10;1.43;;;5.00;92.40;;;;;;5016816;28;20030;-82
2020/12/28 07:37:32;;;;;;;3.20;1.40;;;5.00;92.40;;;;;;4999653;28;20034;-82
2020/12/28 07:39:58;;;;;;;2.60;1.53;;;5.00;92.50;;;;;;5015966;28;20475;-82
2020/12/28 07:42:27;;;;;;;3.23;1.40;;;5.00;92.10;;;;;;5018788;28;20113;-82
2020/12/28 07:44:58;;;;;;;2.83;1.20;;;5.00;92.20;;;;;;5016360;28;20105;-81
2020/12/28 07:47:46;;;;;;;2.77;1.27;;;5.00;92.00;;;;;;5016529;28;20058;-82
2020/12/28 07:50:14;;;;;;;1.80;1.10;;;5.00;92.10;;;;;;4998156;28;20479;-81
2020/12/28 07:52:43;;;;;;;2.80;1.23;;;5.00;92.00;;;;;;5017242;28;20026;-82
2020/12/28 07:55:20;;;;;;;2.13;1.20;;;5.00;91.80;;;;;;4998457;28;20716;-81
2020/12/28 07:57:51;;;;;;;1.63;1.00;;;5.00;92.00;;;;;;5015704;28;20026;-82
2020/12/28 08:00:20;;;;;;;3.00;1.40;;;5.00;91.90;;;;;;4997699;28;20030;-81
2020/12/28 08:03:03;;;;;;;1.90;1.20;;;5.00;91.60;;;;;;5015428;28;20026;-81
2020/12/28 08:05:33;;;;;;;2.60;1.60;;;5.00;92.00;;;;;;5015673;28;20040;-82
2020/12/28 08:07:58;;;;;;;;;;;5.00;91.60;;;;;;4997961;28;20030;-82
2020/12/28 08:10:24;;;;;;;3.73;1.50;;;5.00;91.90;;;;;;4997227;28;19916;-83
2020/12/28 08:12:52;;;;;;;3.87;1.50;;;5.00;92.10;;;;;;4997767;28;20052;-81
2020/12/28 08:15:27;;;;;;;3.53;1.30;;;5.00;91.70;;;;;;5015311;28;20071;-81
2020/12/28 08:18:07;;;;;;;4.23;1.53;;;5.00;92.00;;;;;;5015684;28;20092;-81
2020/12/28 08:20:33;;;;;;;2.55;1.45;;;5.00;91.70;;;;;;5015670;28;20022;-82
2020/12/28 08:22:58;;;;;;;2.47;1.40;;;5.00;91.70;;;;;;4998057;28;20083;-81
2020/12/28 08:25:28;;;;;;;4.90;1.67;;;5.00;91.80;;;;;;5015349;28;20025;-83
2020/12/28 08:27:56;;;;;;;3.87;1.83;;;5.00;91.60;;;;;;5014546;28;20548;-81
2020/12/28 08:30:21;;;;;;;2.97;1.47;;;5.00;91.60;;;;;;5014245;28;20022;-82
2020/12/28 08:32:48;;;;;;;4.63;1.77;;;5.00;91.40;;;;;;5014948;28;20122;-81
2020/12/28 08:35:14;;;;;;;3.07;1.60;;;5.00;91.50;;;;;;4997424;28;20028;-82
2020/12/28 08:37:46;;;;;;;2.63;1.47;;;5.00;91.70;;;;;;4997764;28;20113;-81
2020/12/28 08:40:22;;;;;;;4.20;1.70;;;4.90;91.40;;;;;;4995935;28;20386;-81
2020/12/28 08:42:56;;;;;;;3.03;1.50;;;5.00;91.50;;;;;;5014051;28;20022;-80
2020/12/28 08:45:24;;;;;;;2.93;1.60;;;5.00;92.00;;;;;;5013786;28;20026;-80
2020/12/28 08:47:58;;;;;;;5.53;2.30;;;5.00;91.50;;;;;;5013849;28;20049;-81
2020/12/28 08:50:26;;;;;;;4.20;1.87;;;5.10;91.20;;;;;;4995542;28;20123;-81
2020/12/28 08:52:54;;;;;;;3.97;1.80;;;5.10;91.50;;;;;;5013718;28;20030;-80
2020/12/28 08:55:20;;;;;;;3.60;1.60;;;5.10;91.10;;;;;;4995399;28;20029;-80
2020/12/28 08:57:51;;;;;;;6.60;1.70;;;5.10;91.30;;;;;;5013758;28;20026;-81
2020/12/28 09:00:16;;;;;;;2.70;1.30;;;5.00;91.20;;;;;;4995382;28;20028;-80
2020/12/28 09:02:53;;;;;;;4.47;1.37;;;5.10;91.00;;;;;;5013242;28;20026;-81
2020/12/28 09:05:19;;;;;;;2.97;1.30;;;5.10;91.00;;;;;;5013378;28;20022;-81
2020/12/28 09:07:45;;;;;;;3.33;1.33;;;5.10;90.90;;;;;;4995497;28;20018;-80
2020/12/28 09:10:10;;;;;;;2.93;1.03;;;5.10;90.80;;;;;;5012636;28;20033;-81
2020/12/28 09:12:36;;;;;;;3.20;0.90;;;5.10;90.90;;;;;;5014091;28;20489;-81
2020/12/28 09:15:02;;;;;;;1.93;0.87;;;5.20;90.70;;;;;;5013763;28;20021;-81
2020/12/28 09:17:27;;;;;;;1.87;1.00;;;5.20;90.50;;;;;;5013651;28;20099;-81
2020/12/28 09:19:53;;;;;;;4.13;1.07;;;5.20;90.40;;;;;;5013046;28;20414;-81
2020/12/28 09:22:18;;;;;;;2.17;0.90;;;5.20;90.20;;;;;;5013153;28;20037;-81
2020/12/28 09:24:44;;;;;;;3.23;0.90;;;5.20;90.50;;;;;;5013576;28;20034;-81
2020/12/28 09:27:09;;;;;;;2.97;0.90;;;5.30;90.30;;;;;;4995883;28;20371;-81
2020/12/28 09:29:35;;;;;;;2.23;0.90;;;5.30;89.90;;;;;;5013011;28;20093;-81
2020/12/28 09:32:01;;;;;;;1.20;0.70;;;5.30;89.30;;;;;;5013149;28;20384;-81
2020/12/28 09:34:26;;;;;;;3.17;0.87;;;5.30;89.10;;;;;;4996337;28;20557;-81
2020/12/28 09:37:03;;;;;;;2.63;0.87;;;5.30;89.30;;;;;;5013535;28;20028;-81
2020/12/28 09:39:28;;;;;;;2.30;0.73;;;5.30;88.50;;;;;;5012693;28;20076;-80
2020/12/28 09:41:55;;;;;;;2.80;0.80;;;5.30;88.20;;;;;;5013326;28;20026;-81
2020/12/28 09:44:21;;;;;;;1.70;1.00;;;5.40;88.80;;;;;;5013688;28;20097;-82
2020/12/28 09:46:47;;;;;;;2.50;1.00;;;5.30;88.10;;;;;;5015662;28;20118;-82
2020/12/28 09:49:12;;;;;;;3.67;1.37;;;5.30;88.30;;;;;;5014426;28;20022;-81
2020/12/28 09:51:38;;;;;;;6.33;2.57;;;5.30;89.10;;;;;;5014784;28;20025;-82
2020/12/28 09:54:04;;;;;;;2.67;1.10;;;5.30;88.50;;;;;;5015186;28;20096;-82
2020/12/28 09:56:30;;;;;;;3.70;1.10;;;5.40;88.30;;;;;;4996829;28;20022;-82
2020/12/28 09:58:55;;;;;;;2.87;0.90;;;5.40;88.40;;;;;;5014722;28;20032;-82
2020/12/28 10:01:21;;;;;;;3.07;1.13;;;5.40;88.40;;;;;;5000551;28;20052;-82
2020/12/28 10:03:46;;;;;;;4.03;0.90;;;5.40;88.20;;;;;;5017051;28;20065;-82
2020/12/28 10:09:16;;;;;;;2.33;0.80;;;5.50;88.10;;;;;;4980390;28;20030;-82
2020/12/28 10:11:42;;;;;;;3.03;0.80;;;5.50;87.80;;;;;;4996287;28;20033;-81
2020/12/28 10:14:07;;;;;;;1.80;0.60;;;5.50;87.40;;;;;;4996082;28;20037;-81
2020/12/28 10:16:33;;;;;;;3.20;0.93;;;5.50;87.30;;;;;;5013978;28;20026;-82
2020/12/28 10:18:59;;;;;;;1.23;0.70;;;5.50;87.10;;;;;;4995583;28;20038;-82
2020/12/28 10:21:26;;;;;;;3.27;0.90;;;5.50;86.70;;;;;;5013609;28;20052;-82
2020/12/28 10:23:52;;;;;;;4.00;0.80;;;5.40;86.40;;;;;;5013792;28;20061;-82
2020/12/28 10:26:26;;;;;;;2.87;0.87;;;5.50;85.90;;;;;;5013879;28;20037;-82
2020/12/28 10:28:53;;;;;;;3.20;0.90;;;5.50;86.60;;;;;;4996002;28;20080;-82
2020/12/28 10:31:20;;;;;;;1.27;0.60;;;5.50;86.60;;;;;;5013937;28;20097;-82
2020/12/28 10:33:47;;;;;;;1.83;0.70;;;5.50;86.50;;;;;;5013939;28;20026;-82
2020/12/28 10:36:17;;;;;;;2.23;0.70;;;5.50;85.80;;;;;;5014644;28;20037;-82
2020/12/28 10:38:44;;;;;;;2.77;1.10;;;5.50;85.20;;;;;;5014585;28;20109;-81
2020/12/28 10:41:10;;;;;;;3.43;0.60;;;5.50;85.90;;;;;;5013735;28;20030;-82
2020/12/28 10:43:36;;;;;;;2.83;0.60;;;5.50;85.20;;;;;;4996337;28;20510;-82
2020/12/28 10:46:02;;;;;;;2.10;0.90;;;5.50;86.20;;;;;;5013998;28;20041;-81
2020/12/28 10:48:28;;;;;;;3.87;0.70;;;5.50;86.30;;;;;;5013880;28;20030;-82
2020/12/28 10:50:54;;;;;;;3.00;0.77;;;5.50;86.30;;;;;;5015910;28;20025;-82
2020/12/28 10:53:20;;;;;;;2.00;0.60;;;5.50;85.80;;;;;;5017099;28;20092;-82
2020/12/28 10:55:45;;;;;;;2.77;0.60;;;5.50;86.20;;;;;;5017596;28;20036;-82
2020/12/28 10:58:13;;;;;;;1.57;0.57;;;5.40;86.00;;;;;;5016842;28;20426;-82
2020/12/28 11:00:40;;;;;;;3.53;1.00;;;5.40;86.70;;;;;;5016117;28;20026;-82
2020/12/28 11:03:05;;;;;;;1.83;0.60;;;5.40;86.30;;;;;;5016552;28;20467;-81
2020/12/28 11:05:31;;;;;;;1.63;0.67;;;5.50;85.90;;;;;;5016381;28;20096;-82
2020/12/28 11:07:56;;;;;;;1.70;0.50;;;5.40;86.20;;;;;;5016383;28;20034;-82
2020/12/28 11:10:22;;;;;;;2.60;0.90;;;5.40;85.90;;;;;;5015840;28;20026;-82
2020/12/28 11:12:47;;;;;;;2.03;0.67;;;5.50;87.20;;;;;;5000269;28;20471;-82
2020/12/28 11:15:13;;;;;;;1.80;0.90;;;5.50;86.50;;;;;;5016192;28;20030;-81
2020/12/28 11:17:39;;;;;;;1.77;0.70;;;5.50;87.00;;;;;;5017273;28;20022;-82
2020/12/28 11:20:04;;;;;;;3.77;0.80;;;5.50;87.00;;;;;;5015414;28;20391;-82
2020/12/28 11:22:30;;;;;;;3.00;0.70;;;5.50;86.70;;;;;;5016447;28;20061;-82
2020/12/28 11:24:55;;;;;;;2.10;0.70;;;5.50;86.00;;;;;;4998611;28;20048;-82
2020/12/28 11:27:21;;;;;;;2.23;0.90;;;5.60;86.50;;;;;;5016465;28;20072;-81
2020/12/28 11:29:47;;;;;;;3.50;1.20;;;5.50;86.60;;;;;;5016359;28;20065;-82
2020/12/28 11:32:12;;;;;;;2.20;0.70;;;5.60;86.10;;;;;;4998356;28;20035;-82
2020/12/28 11:34:38;;;;;;;2.50;0.80;;;5.60;85.60;;;;;;5016561;28;20105;-82
2020/12/28 11:37:05;;;;;;;1.70;0.73;;;5.60;85.50;;;;;;5016775;28;20083;-82
2020/12/28 11:39:31;;;;;;;1.70;0.70;;;5.60;85.70;;;;;;4997693;28;20092;-82
2020/12/28 11:41:56;;;;;;;2.57;0.80;;;5.60;85.80;;;;;;5015997;28;20038;-82
2020/12/28 11:44:22;;;;;;;2.00;0.70;;;5.60;85.00;;;;;;5015724;28;20030;-82
2020/12/28 11:46:47;;;;;;;0.80;0.50;;;5.60;85.30;;;;;;5015944;28;20030;-82
2020/12/28 11:49:13;;;;;;;2.03;0.60;;;5.60;84.60;;;;;;5015438;28;20057;-82
2020/12/28 11:51:39;;;;;;;2.17;0.67;;;5.60;84.60;;;;;;4997450;28;20034;-82
2020/12/28 11:54:04;;;;;;;2.53;0.80;;;5.60;84.80;;;;;;5015340;28;20077;-82
2020/12/28 11:56:35;;;;;;;4.40;0.90;;;5.60;83.50;;;;;;5016622;28;20057;-82
2020/12/28 11:59:01;;;;;;;2.07;0.60;;;5.60;83.80;;;;;;5014983;28;20032;-82
2020/12/28 12:01:26;;;;;;;2.57;1.00;;;5.60;84.60;;;;;;5015216;28;20034;-81
2020/12/28 12:03:52;;;;;;;2.07;1.00;;;5.60;84.20;;;;;;5015614;28;20034;-82
2020/12/28 12:06:21;;;;;;;2.70;1.10;;;5.60;84.20;;;;;;5015811;28;20117;-82
2020/12/28 12:11:35;;;;;;;3.60;0.70;;;5.70;84.20;;;;;;5015982;28;20128;-82
2020/12/28 12:14:01;;;;;;;1.55;0.75;;;5.70;83.80;;;;;;5015901;28;20022;-82
2020/12/28 12:16:26;;;;;;;2.10;0.90;;;5.70;84.00;;;;;;5015881;28;20037;-82
2020/12/28 12:18:52;;;;;;;1.50;0.67;;;5.70;83.70;;;;;;5016083;28;20022;-82
2020/12/28 12:21:18;;;;;;;2.27;0.83;;;5.70;83.80;;;;;;5015353;28;20524;-82
2020/12/28 12:23:44;;;;;;;2.00;1.00;;;5.70;82.50;;;;;;5014838;28;20022;-82
2020/12/28 12:26:11;;;;;;;4.33;0.90;;;5.70;83.20;;;;;;5014835;28;20465;-82
2020/12/28 12:28:36;;;;;;;5.13;1.00;;;5.80;83.10;;;;;;5014963;28;20057;-83
2020/12/28 12:31:02;;;;;;;1.57;0.60;;;5.80;82.60;;;;;;5013864;28;20111;-82
2020/12/28 12:33:28;;;;;;;2.80;0.90;;;5.80;82.40;;;;;;5014382;28;20022;-83
2020/12/28 12:35:54;;;;;;;3.07;0.80;;;5.90;81.70;;;;;;4996968;28;20053;-83
2020/12/28 12:38:19;;;;;;;2.50;0.80;;;5.90;82.30;;;;;;5014275;28;20029;-83
2020/12/28 12:40:45;;;;;;;3.70;1.10;;;5.90;81.20;;;;;;5013814;28;20080;-82
2020/12/28 12:43:10;;;;;;;2.80;0.60;;;6.00;81.50;;;;;;5014748;28;20042;-82
2020/12/28 12:45:36;;;;;;;1.97;0.70;;;6.00;80.40;;;;;;5014384;28;20060;-82
2020/12/28 12:48:02;;;;;;;2.93;0.60;;;6.00;80.40;;;;;;5014749;28;20061;-82
2020/12/28 12:50:27;;;;;;;2.40;1.10;;;6.00;80.10;;;;;;5015351;28;20061;-83
2020/12/28 12:52:53;;;;;;;1.83;0.50;;;6.00;80.40;;;;;;5015465;28;20076;-83
2020/12/28 12:55:19;;;;;;;3.80;0.80;;;6.00;80.70;;;;;;5014958;28;20442;-82
2020/12/28 12:57:44;;;;;;;5.00;0.90;;;6.00;80.80;;;;;;5014793;28;20025;-82
2020/12/28 13:00:10;;;;;;;1.53;0.60;;;6.00;81.30;;;;;;5013851;28;20026;-82
2020/12/28 13:02:40;;;;;;;2.43;0.60;;;6.00;80.50;;;;;;5014651;28;20494;-82